Terminal Aerodrome Forecast
Issued by NWS Cleveland, OH

Home | Current Version | Previous Version | Graphics & Text | Print | Product List | Glossary Off
Versions: 1 2 3 4 5 6 7 8 9 10 11 12 13 14

000
FTUS41 KCLE 030520
TAFCAK
TAF
KCAK 030520Z 0306/0406 04005KT P6SM SCT250
      TEMPO 0309/0313 4SM BR
     FM031300 09006KT P6SM BKN250
     FM031600 11006KT P6SM BKN045 BKN120
     FM032000 05006KT P6SM VCSH BKN045 OVC250
     FM040100 04005KT P6SM VCSH OVC045=

USA.gov is the U.S. government's official web portal to all federal, state and local government web resources and services.